createdAt,value
2023-05-04T00:01:27.297Z,10.23
2023-05-04T00:04:14.154Z,10.20
2023-05-04T00:06:59.572Z,10.14
2023-05-04T00:09:44.940Z,10.11
2023-05-04T00:12:30.700Z,10.06
2023-05-04T00:15:16.646Z,10.08
2023-05-04T00:18:02.282Z,10.02
2023-05-04T00:20:48.176Z,9.98
2023-05-04T00:23:33.754Z,9.97
2023-05-04T00:26:19.519Z,9.96
2023-05-04T00:29:05.593Z,9.97
2023-05-04T00:31:51.610Z,10.00
2023-05-04T00:34:36.865Z,10.04
2023-05-04T00:37:22.113Z,10.04
2023-05-04T00:40:09.058Z,10.02
2023-05-04T00:42:54.605Z,9.99
2023-05-04T00:45:41.072Z,9.95
2023-05-04T00:48:26.332Z,9.93
2023-05-04T00:51:14.205Z,9.89
2023-05-04T00:54:00.253Z,9.82
2023-05-04T00:56:46.139Z,9.71
2023-05-04T00:59:31.492Z,9.59
2023-05-04T01:02:16.962Z,9.49
2023-05-04T01:05:03.157Z,9.42
2023-05-04T01:08:07.536Z,9.30
2023-05-04T01:11:00.771Z,9.23
2023-05-04T01:13:49.477Z,9.15
2023-05-04T01:16:34.965Z,9.10
2023-05-04T01:19:20.583Z,9.10
2023-05-04T01:22:06.235Z,9.08
2023-05-04T01:24:51.503Z,9.08
2023-05-04T01:27:46.046Z,9.08
2023-05-04T01:30:44.907Z,9.08
2023-05-04T01:33:31.685Z,9.06
2023-05-04T01:36:17.703Z,9.03
2023-05-04T01:39:04.156Z,8.99
2023-05-04T01:41:51.895Z,8.98
2023-05-04T01:44:37.534Z,8.96
2023-05-04T01:47:23.269Z,8.85
2023-05-04T01:50:09.430Z,8.74
2023-05-04T01:52:54.969Z,8.66
2023-05-04T01:55:40.741Z,8.59
2023-05-04T01:58:27.258Z,8.55
2023-05-04T02:01:12.779Z,8.46
2023-05-04T02:03:58.205Z,8.38
2023-05-04T02:06:43.822Z,8.33
2023-05-04T02:09:29.590Z,8.25
2023-05-04T02:12:14.952Z,8.20
2023-05-04T02:15:00.217Z,8.13
2023-05-04T02:17:46.589Z,8.13
2023-05-04T02:20:31.756Z,8.15
2023-05-04T02:23:17.152Z,8.15
2023-05-04T02:26:02.594Z,8.13
2023-05-04T02:28:48.270Z,8.10
2023-05-04T02:31:34.238Z,8.09
2023-05-04T02:34:19.653Z,8.08
2023-05-04T02:37:08.182Z,8.04
2023-05-04T02:39:53.498Z,8.04
2023-05-04T02:42:38.965Z,8.00
2023-05-04T02:45:24.803Z,8.04
2023-05-04T02:48:10.389Z,8.09
2023-05-04T02:50:56.598Z,8.10
2023-05-04T02:53:42.091Z,8.16
2023-05-04T02:56:27.474Z,8.24
2023-05-04T02:59:13.032Z,8.29
2023-05-04T03:01:58.419Z,8.31
2023-05-04T03:04:44.007Z,8.32
2023-05-04T03:07:29.552Z,8.37
2023-05-04T03:10:15.301Z,8.38
2023-05-04T03:13:06.097Z,8.34
2023-05-04T03:15:51.663Z,8.31
2023-05-04T03:18:37.125Z,8.25
2023-05-04T03:21:24.016Z,8.17
2023-05-04T03:24:09.915Z,8.17
2023-05-04T03:26:55.546Z,8.16
2023-05-04T03:29:42.305Z,8.13
2023-05-04T03:32:28.168Z,8.13
2023-05-04T03:35:14.357Z,8.12
2023-05-04T03:38:01.203Z,8.11
2023-05-04T03:40:47.063Z,8.15
2023-05-04T03:43:33.053Z,8.16
2023-05-04T03:46:18.993Z,8.20
2023-05-04T03:49:04.761Z,8.24
2023-05-04T03:51:50.304Z,8.28
2023-05-04T03:54:35.766Z,8.33
2023-05-04T03:57:22.449Z,8.40
2023-05-04T04:00:09.189Z,8.45
2023-05-04T04:03:00.356Z,8.50
2023-05-04T04:05:47.823Z,8.51
2023-05-04T04:08:33.468Z,8.55
2023-05-04T04:11:18.684Z,8.56
2023-05-04T04:14:04.014Z,8.58
2023-05-04T04:16:49.545Z,8.60
2023-05-04T04:19:34.896Z,8.62
2023-05-04T04:22:20.386Z,8.63
2023-05-04T04:25:05.912Z,8.58
2023-05-04T04:27:51.669Z,8.53
2023-05-04T04:30:37.521Z,8.51
2023-05-04T04:33:22.855Z,8.46
2023-05-04T04:36:09.193Z,8.43
2023-05-04T04:38:54.552Z,8.39
2023-05-04T04:41:39.977Z,8.33
2023-05-04T04:44:25.374Z,8.27
2023-05-04T04:47:10.755Z,8.26
2023-05-04T04:49:56.449Z,8.23
2023-05-04T04:52:41.794Z,8.20
2023-05-04T04:55:27.263Z,8.16
2023-05-04T04:58:13.100Z,8.16
2023-05-04T05:00:58.927Z,8.16
2023-05-04T05:03:45.740Z,8.14
2023-05-04T05:06:31.482Z,8.16
2023-05-04T05:09:16.955Z,8.18
2023-05-04T05:12:02.645Z,8.23
2023-05-04T05:14:48.244Z,8.24
2023-05-04T05:17:35.691Z,8.27
2023-05-04T05:20:21.452Z,8.27
2023-05-04T05:23:06.645Z,8.29
2023-05-04T05:25:52.440Z,8.31
2023-05-04T05:28:38.027Z,8.39
2023-05-04T05:31:23.665Z,8.48
2023-05-04T05:34:09.363Z,8.57
2023-05-04T05:36:54.820Z,8.64
2023-05-04T05:39:40.482Z,8.69
2023-05-04T05:42:26.120Z,8.73
2023-05-04T05:45:11.749Z,8.78
2023-05-04T05:47:57.445Z,8.88
2023-05-04T05:50:42.854Z,8.97
2023-05-04T05:53:28.450Z,9.07
2023-05-04T05:56:14.906Z,9.17
2023-05-04T05:59:00.185Z,9.24
2023-05-04T06:01:45.712Z,9.31
2023-05-04T06:04:30.997Z,9.35
2023-05-04T06:07:16.492Z,9.39
2023-05-04T06:10:02.287Z,9.43
2023-05-04T06:12:47.940Z,9.48
2023-05-04T06:15:33.433Z,9.51
2023-05-04T06:18:20.209Z,9.52
2023-05-04T06:21:05.681Z,9.57
2023-05-04T06:23:51.098Z,9.63
2023-05-04T06:26:36.442Z,9.67
2023-05-04T06:29:22.675Z,9.71
2023-05-04T06:32:10.435Z,9.75
2023-05-04T06:34:56.299Z,9.82
2023-05-04T06:37:42.123Z,9.87
2023-05-04T06:40:27.480Z,9.93
2023-05-04T06:43:13.164Z,9.98
2023-05-04T06:46:05.022Z,10.05
2023-05-04T06:48:50.779Z,10.11
2023-05-04T06:51:37.771Z,10.19
2023-05-04T06:54:23.613Z,10.25
2023-05-04T06:57:09.026Z,10.31
2023-05-04T06:59:54.544Z,10.37
2023-05-04T07:02:40.032Z,10.41
2023-05-04T07:05:25.986Z,10.42
2023-05-04T07:08:12.584Z,10.50
2023-05-04T07:10:58.387Z,10.56
2023-05-04T07:13:43.797Z,10.60
2023-05-04T07:16:29.318Z,10.66
2023-05-04T07:19:14.598Z,10.72
2023-05-04T07:22:00.944Z,10.73
2023-05-04T07:24:46.841Z,10.79
2023-05-04T07:27:32.626Z,10.77
2023-05-04T07:30:20.533Z,10.81
2023-05-04T07:33:06.401Z,10.82
2023-05-04T07:36:00.086Z,10.81
2023-05-04T07:38:45.931Z,10.87
2023-05-04T07:41:31.724Z,10.94
2023-05-04T07:44:17.149Z,11.08
2023-05-04T07:47:02.923Z,11.13
2023-05-04T07:49:48.627Z,11.23
2023-05-04T07:52:33.818Z,11.32
2023-05-04T07:55:19.636Z,11.38
2023-05-04T07:58:05.476Z,11.43
2023-05-04T08:00:50.876Z,11.49
2023-05-04T08:03:36.489Z,11.43
2023-05-04T08:06:22.129Z,11.40
2023-05-04T08:09:08.105Z,11.38
2023-05-04T08:11:53.776Z,11.33
2023-05-04T08:14:40.556Z,11.32
2023-05-04T08:17:26.484Z,11.33
2023-05-04T08:20:12.286Z,11.34
2023-05-04T08:22:58.086Z,11.29
2023-05-04T08:25:43.642Z,11.28
2023-05-04T08:28:31.122Z,11.22
2023-05-04T08:31:18.798Z,11.21
2023-05-04T08:34:04.856Z,11.24
2023-05-04T08:36:50.865Z,11.25
2023-05-04T08:39:36.369Z,11.34
2023-05-04T08:42:29.829Z,11.33
2023-05-04T08:45:16.654Z,11.35
2023-05-04T08:48:02.251Z,11.33
2023-05-04T08:50:48.614Z,11.33
2023-05-04T08:53:36.519Z,11.40
2023-05-04T08:56:23.297Z,11.44
2023-05-04T08:59:20.002Z,11.55
2023-05-04T09:02:05.901Z,11.63
2023-05-04T09:04:52.879Z,11.82
2023-05-04T09:07:38.392Z,11.98
2023-05-04T09:10:26.344Z,12.04
2023-05-04T09:13:13.261Z,12.03
2023-05-04T09:15:59.179Z,11.99
2023-05-04T09:18:46.037Z,11.84
2023-05-04T09:21:32.510Z,11.86
2023-05-04T09:24:31.151Z,11.97
2023-05-04T09:27:19.613Z,11.98
2023-05-04T09:30:06.026Z,11.97
2023-05-04T09:32:53.194Z,12.05
2023-05-04T09:35:44.700Z,11.98
2023-05-04T09:38:34.948Z,12.10
2023-05-04T09:41:31.975Z,12.31
2023-05-04T09:44:22.531Z,12.40
2023-05-04T09:47:08.578Z,12.56
2023-05-04T09:49:54.385Z,12.71
2023-05-04T09:52:42.222Z,12.83
2023-05-04T09:55:28.592Z,12.64
2023-05-04T09:58:19.108Z,12.57
2023-05-04T10:01:05.914Z,12.32
2023-05-04T10:03:53.770Z,12.07
2023-05-04T10:06:39.353Z,12.08
2023-05-04T10:09:29.934Z,12.06
2023-05-04T10:12:15.824Z,12.31
2023-05-04T10:15:01.806Z,12.75
2023-05-04T10:18:25.168Z,13.13
2023-05-04T10:21:42.555Z,13.42
2023-05-04T10:24:55.409Z,13.28
2023-05-04T10:28:01.993Z,13.28
2023-05-04T10:30:47.630Z,13.08
2023-05-04T10:33:43.311Z,12.95
2023-05-04T10:36:36.707Z,12.69
2023-05-04T10:39:24.811Z,12.56
2023-05-04T10:42:10.025Z,12.54
2023-05-04T10:44:57.130Z,12.38
2023-05-04T10:47:42.759Z,12.30
2023-05-04T10:50:28.215Z,12.33
2023-05-04T10:53:15.201Z,12.32
2023-05-04T10:56:01.608Z,12.47
2023-05-04T10:58:47.231Z,12.56
2023-05-04T11:01:44.211Z,12.52
2023-05-04T11:04:30.537Z,12.33
2023-05-04T11:07:16.242Z,12.27
2023-05-04T11:10:02.203Z,12.32
2023-05-04T11:12:48.139Z,12.51
2023-05-04T11:15:44.453Z,12.64
2023-05-04T11:18:35.537Z,12.68
2023-05-04T11:21:27.776Z,12.65
2023-05-04T11:24:13.765Z,12.49
2023-05-04T11:26:59.255Z,12.54
2023-05-04T11:30:03.224Z,12.60
2023-05-04T11:32:51.860Z,12.67
2023-05-04T11:35:37.662Z,12.62
2023-05-04T11:38:23.354Z,12.46
2023-05-04T11:41:09.506Z,12.38
2023-05-04T11:43:55.187Z,12.28
2023-05-04T11:46:40.979Z,12.13
2023-05-04T11:49:27.746Z,12.09
2023-05-04T11:52:13.501Z,12.07
2023-05-04T11:54:59.259Z,12.12
2023-05-04T11:57:44.676Z,12.20
2023-05-04T12:00:43.960Z,12.24
2023-05-04T12:06:33.588Z,12.43
2023-05-04T12:09:19.167Z,12.51
2023-05-04T12:12:04.677Z,12.60
2023-05-04T12:14:52.224Z,12.68
2023-05-04T12:17:42.103Z,12.81
2023-05-04T12:20:29.468Z,12.94
2023-05-04T12:23:14.917Z,13.04
2023-05-04T12:26:00.253Z,13.04
2023-05-04T12:28:45.612Z,13.10
2023-05-04T12:31:31.024Z,13.19
2023-05-04T12:34:16.727Z,13.07
2023-05-04T12:37:02.274Z,12.98
2023-05-04T12:39:47.584Z,13.01
2023-05-04T12:42:33.060Z,13.07
2023-05-04T12:45:18.489Z,13.13
2023-05-04T12:48:04.113Z,13.15
2023-05-04T12:50:51.153Z,13.34
2023-05-04T12:53:36.907Z,13.35
2023-05-04T12:56:22.456Z,13.32
2023-05-04T12:59:07.867Z,13.28
2023-05-04T13:01:53.601Z,13.00
2023-05-04T13:04:40.227Z,12.91
2023-05-04T13:07:25.860Z,12.99
2023-05-04T13:10:11.334Z,13.04
2023-05-04T13:12:56.865Z,13.10
2023-05-04T13:15:42.810Z,13.17
2023-05-04T13:18:29.048Z,13.23
2023-05-04T13:21:14.544Z,13.37
2023-05-04T13:24:00.488Z,13.60
2023-05-04T13:26:46.136Z,13.87
2023-05-04T13:29:31.706Z,14.23
2023-05-04T13:32:17.111Z,14.65
2023-05-04T13:35:04.261Z,14.98
2023-05-04T13:37:49.673Z,15.47
2023-05-04T13:40:35.230Z,15.85
2023-05-04T13:43:21.817Z,15.80
2023-05-04T13:46:07.278Z,15.81
2023-05-04T13:48:54.174Z,15.68
2023-05-04T13:51:40.410Z,15.65
2023-05-04T13:54:27.674Z,15.59
2023-05-04T13:57:13.219Z,15.46
2023-05-04T14:00:06.962Z,15.41
2023-05-04T14:02:59.495Z,15.37
2023-05-04T14:05:45.303Z,15.61
2023-05-04T14:08:31.029Z,15.68
2023-05-04T14:11:16.394Z,15.69
2023-05-04T14:14:01.895Z,15.85
2023-05-04T14:16:47.285Z,15.45
2023-05-04T14:19:32.568Z,15.09
2023-05-04T14:22:18.071Z,14.68
2023-05-04T14:25:03.486Z,14.51
2023-05-04T14:27:49.142Z,14.07
2023-05-04T14:30:34.522Z,13.80
2023-05-04T14:33:19.783Z,13.53
2023-05-04T14:36:05.501Z,13.43
2023-05-04T14:38:51.144Z,13.36
2023-05-04T14:41:37.779Z,13.28
2023-05-04T14:44:24.827Z,13.13
2023-05-04T14:47:10.354Z,13.14
2023-05-04T14:49:56.116Z,13.14
2023-05-04T14:52:41.634Z,13.00
2023-05-04T14:55:26.883Z,13.01
2023-05-04T14:58:14.100Z,13.06
2023-05-04T15:00:59.512Z,13.03
2023-05-04T15:03:45.025Z,13.00
2023-05-04T15:06:32.821Z,12.97
2023-05-04T15:09:18.379Z,13.08
2023-05-04T15:12:04.787Z,13.18
2023-05-04T15:14:50.345Z,13.44
2023-05-04T15:17:36.005Z,13.54
2023-05-04T15:20:22.592Z,13.69
2023-05-04T15:23:11.630Z,13.71
2023-05-04T15:25:57.305Z,13.66
2023-05-04T15:28:42.890Z,13.56
2023-05-04T15:31:28.365Z,13.33
2023-05-04T15:34:16.189Z,13.20
2023-05-04T15:37:03.328Z,13.14
2023-05-04T15:39:48.683Z,13.24
2023-05-04T15:42:34.057Z,13.20
2023-05-04T15:45:19.583Z,13.14
2023-05-04T15:48:05.436Z,13.11
2023-05-04T15:50:51.121Z,13.08
2023-05-04T15:53:36.473Z,13.02
2023-05-04T15:56:22.395Z,12.99
2023-05-04T15:59:08.040Z,13.00
2023-05-04T16:01:53.896Z,12.95
2023-05-04T16:04:39.336Z,12.93
2023-05-04T16:07:24.729Z,12.90
2023-05-04T16:10:10.422Z,12.94
2023-05-04T16:12:56.703Z,12.98
2023-05-04T16:15:42.384Z,13.06
2023-05-04T16:18:28.010Z,13.13
2023-05-04T16:21:15.164Z,13.09
2023-05-04T16:24:00.845Z,13.07
2023-05-04T16:26:49.874Z,13.04
2023-05-04T16:29:35.435Z,13.04
2023-05-04T16:32:21.597Z,13.01
2023-05-04T16:35:08.225Z,13.00
2023-05-04T16:37:53.877Z,12.95
2023-05-04T16:40:41.629Z,12.86
2023-05-04T16:43:27.366Z,12.69
2023-05-04T16:46:12.808Z,12.63
2023-05-04T16:48:58.070Z,12.55
2023-05-04T16:51:43.649Z,12.56
2023-05-04T16:54:29.142Z,12.57
2023-05-04T16:57:14.604Z,12.55
2023-05-04T17:00:00.164Z,12.55
2023-05-04T17:02:45.594Z,12.58
2023-05-04T17:05:31.544Z,12.60
2023-05-04T17:08:17.588Z,12.56
2023-05-04T17:11:03.426Z,12.47
2023-05-04T17:13:48.894Z,12.42
2023-05-04T17:16:34.360Z,12.34
2023-05-04T17:19:19.969Z,12.21
2023-05-04T17:22:05.609Z,12.05
2023-05-04T17:24:51.200Z,11.92
2023-05-04T17:27:36.665Z,11.78
2023-05-04T17:30:22.637Z,11.70
2023-05-04T17:33:08.315Z,11.58
2023-05-04T17:35:54.196Z,11.53
2023-05-04T17:38:40.949Z,11.40
2023-05-04T17:41:26.836Z,11.31
2023-05-04T17:44:12.319Z,11.23
2023-05-04T17:46:57.690Z,11.12
2023-05-04T17:49:42.989Z,11.06
2023-05-04T17:52:28.404Z,10.97
2023-05-04T17:55:13.831Z,10.88
2023-05-04T17:57:59.282Z,10.84
2023-05-04T18:00:44.578Z,10.83
2023-05-04T18:03:29.912Z,10.80
2023-05-04T18:06:15.258Z,10.80
2023-05-04T18:09:01.015Z,10.80
2023-05-04T18:11:47.006Z,10.80
2023-05-04T18:14:32.744Z,10.83
2023-05-04T18:17:17.983Z,10.85
2023-05-04T18:20:05.003Z,10.86
2023-05-04T18:22:50.604Z,10.90
2023-05-04T18:25:37.540Z,10.91
2023-05-04T18:28:23.378Z,10.91
2023-05-04T18:31:09.048Z,10.91
2023-05-04T18:33:54.351Z,10.92
2023-05-04T18:36:39.820Z,10.92
2023-05-04T18:39:25.057Z,10.91
2023-05-04T18:42:10.590Z,10.91
2023-05-04T18:44:56.277Z,10.86
2023-05-04T18:47:41.873Z,10.82
2023-05-04T18:50:27.330Z,10.79
2023-05-04T18:53:12.639Z,10.76
2023-05-04T18:56:02.607Z,10.76
2023-05-04T18:58:48.322Z,10.74
2023-05-04T19:01:33.814Z,10.73
2023-05-04T19:04:19.710Z,10.71
2023-05-04T19:07:05.205Z,10.69
2023-05-04T19:09:50.799Z,10.66
2023-05-04T19:12:36.622Z,10.59
2023-05-04T19:15:23.131Z,10.52
2023-05-04T19:18:08.748Z,10.46
2023-05-04T19:20:54.697Z,10.35
2023-05-04T19:23:40.207Z,10.32
2023-05-04T19:26:25.893Z,10.29
2023-05-04T19:29:11.899Z,10.26
2023-05-04T19:31:59.532Z,10.29
2023-05-04T19:34:46.995Z,10.30
2023-05-04T19:37:32.833Z,10.32
2023-05-04T19:40:18.424Z,10.33
2023-05-04T19:43:04.633Z,10.34
2023-05-04T19:45:51.497Z,10.37
2023-05-04T19:48:37.154Z,10.37
2023-05-04T19:51:22.959Z,10.39
2023-05-04T19:54:11.233Z,10.41
2023-05-04T19:56:57.246Z,10.41
2023-05-04T19:59:44.252Z,10.37
2023-05-04T20:02:32.462Z,10.35
2023-05-04T20:05:18.057Z,10.31
2023-05-04T20:08:05.136Z,10.29
2023-05-04T20:10:51.099Z,10.26
2023-05-04T20:13:38.245Z,10.26
2023-05-04T20:16:24.044Z,10.24
2023-05-04T20:19:09.294Z,10.22
2023-05-04T20:21:54.634Z,10.22
2023-05-04T20:24:40.867Z,10.18
2023-05-04T20:27:26.135Z,10.19
2023-05-04T20:30:11.996Z,10.19
2023-05-04T20:32:57.603Z,10.18
2023-05-04T20:35:44.247Z,10.19
2023-05-04T20:38:29.892Z,10.17
2023-05-04T20:41:15.292Z,10.15
2023-05-04T20:44:00.931Z,10.14
2023-05-04T20:46:46.249Z,10.14
2023-05-04T20:49:31.605Z,10.15
2023-05-04T20:52:17.262Z,10.14
2023-05-04T20:55:02.725Z,10.11
2023-05-04T20:57:48.414Z,10.12
2023-05-04T21:00:34.044Z,10.10
2023-05-04T21:03:19.875Z,10.06
2023-05-04T21:06:06.075Z,10.05
2023-05-04T21:08:51.390Z,10.03
2023-05-04T21:11:36.744Z,9.99
2023-05-04T21:14:22.210Z,9.97
2023-05-04T21:17:08.146Z,9.98
2023-05-04T21:19:53.414Z,10.00
2023-05-04T21:22:38.689Z,10.02
2023-05-04T21:25:24.156Z,10.05
2023-05-04T21:28:09.665Z,10.06
2023-05-04T21:30:55.318Z,10.06
2023-05-04T21:33:41.178Z,10.05
2023-05-04T21:36:27.533Z,10.03
2023-05-04T21:39:14.253Z,10.02
2023-05-04T21:41:59.530Z,10.03
2023-05-04T21:44:45.067Z,10.06
2023-05-04T21:47:30.780Z,10.08
2023-05-04T21:50:16.467Z,10.17
2023-05-04T21:53:01.889Z,10.22
2023-05-04T21:55:47.257Z,10.26
2023-05-04T21:58:32.670Z,10.31
2023-05-04T22:01:18.462Z,10.36
2023-05-04T22:04:07.103Z,10.39
2023-05-04T22:06:52.842Z,10.41
2023-05-04T22:09:38.314Z,10.41
2023-05-04T22:12:23.606Z,10.45
2023-05-04T22:15:10.327Z,10.46
2023-05-04T22:17:56.080Z,10.45
2023-05-04T22:20:42.472Z,10.45
2023-05-04T22:23:27.844Z,10.45
2023-05-04T22:26:13.390Z,10.43
2023-05-04T22:28:59.046Z,10.41
2023-05-04T22:31:44.620Z,10.42
2023-05-04T22:34:30.029Z,10.40
2023-05-04T22:37:15.571Z,10.39
2023-05-04T22:40:06.626Z,10.39
2023-05-04T22:42:52.110Z,10.40
2023-05-04T22:45:38.462Z,10.42
2023-05-04T22:48:24.021Z,10.41
2023-05-04T22:51:09.745Z,10.41
2023-05-04T22:53:55.164Z,10.41
2023-05-04T22:56:40.527Z,10.43
2023-05-04T22:59:26.005Z,10.43
2023-05-04T23:02:12.243Z,10.44
2023-05-04T23:05:00.556Z,10.45
2023-05-04T23:07:45.970Z,10.45
2023-05-04T23:10:31.350Z,10.46
2023-05-04T23:13:16.934Z,10.46
2023-05-04T23:16:03.718Z,10.46
2023-05-04T23:18:49.309Z,10.47
2023-05-04T23:21:34.797Z,10.46
2023-05-04T23:24:20.358Z,10.47
2023-05-04T23:27:06.241Z,10.47
2023-05-04T23:29:51.721Z,10.49
2023-05-04T23:32:37.176Z,10.51
2023-05-04T23:35:22.643Z,10.49
2023-05-04T23:38:08.194Z,10.48
2023-05-04T23:40:54.076Z,10.49
2023-05-04T23:43:39.821Z,10.46
2023-05-04T23:46:25.180Z,10.45
2023-05-04T23:49:11.928Z,10.45
2023-05-04T23:51:57.300Z,10.43
2023-05-04T23:54:42.788Z,10.43
2023-05-04T23:57:28.855Z,10.40
